Etusivu
METAR-TAF:

METAR-TAF

Lentoasemat :

Waterville Robert LaFleur Airport

Waterville, Maine, Yhdysvallat

Leveyspiiri: 44-32N, Pituuspiiri: 069-41W, korkeus merenpinnasta: 101 m

Tämänhetkinen sää

Tämä raportti tehtiin 47 minuuttia sitten, kello 09.56 UTC
Tuuli 6 kn lännestä/lounaasta
Lämpötila -5°C
Kosteus 68%
Ilmanpaine 1012 hPa
Näkyvyys: 16.1 km
selkeää

METAR: KWVL 060956Z AUTO 24006KT 10SM CLR M05/M10 A2989 RMK AO2 SLP154 T10501100 FZRANO

Aika: 05:43 (10:43 UTC)


TAF: puuttuu

Säähavainnot ja -ennusteet yli 4000 lentoasemalta (METAR- ja TAF-raportit).

Käytössä olevat sääasemat on merkitty karttaan keltaisilla ja punaisilla pisteillä.

Aseta hiiri pisteen päälle nähdäksesi sääaseman nimen.

Klikkaa sitten nähdäksesi säähavainnot ja -ennusteet.

Kartan vaihtaminen: klikkaa mustalla rastilla varustettuja vihreitä pisteitä, niin voit zoomata sisään; viivalla varustettua vihreää pistettä, niin voit zoomata ulos tai vihreitä nuolia, niin pääset viereisille kartoille.


METAR-TAF: